Alsace Manor, Pennsylvania
Current Conditions -  °F | °C
As of 4:54 PM on Wednesday 22 Oct 2014 (Local Time) from KRDG Reporting Station
Light Rain Light Rain  
Wind Chill: 56°   Ceiling: 2700
Heat Index: 56°   Visibility: 10mi
Dew Point: 47°   Wind: 15mph
Humidity: 72%   Direction: 350°N
Pressure: 29.9"   Gusts: 25mph
Location:  40.4008°N, 75.8851°W
Report Text: KRDG 222054Z 35013G22KT 10SM -RA OVC027 13/08 A2990 RMK AO2 RAB14 SLP130 P0000 60000 T01330083 57003
Loading
Personal Weather Stations






























Interactive Weather Map
Tropical Storm Tracking
New forecast layout! Learn more

10-Day Weather Forecast

Advertisements
Track Severe Weather on mobile